Time;durP1;ratioP1;P1;durP2;ratioP2;P2;SDS_P1;SDS_P2;PMS_P1;PMS_P2;Temp;Humidity;BMP_temperature;BMP_pressure;BME280_temperature;BME280_humidity;BME280_pressure;Samples;Min_cycle;Max_cycle;Signal;HPM_P1;HPM_P2
2022/10/16 00:00:48;;;;;;;7.88;7.05;;;12.80;99.90;;;;;;5012890;28;20044;-71
2022/10/16 00:03:15;;;;;;;11.57;7.40;;;12.80;99.90;;;;;;4997041;28;20049;-71
2022/10/16 00:05:43;;;;;;;9.18;7.70;;;12.80;99.90;;;;;;4998576;28;20042;-71
2022/10/16 00:08:12;;;;;;;12.57;7.18;;;12.80;99.90;;;;;;5000450;28;20045;-71
2022/10/16 00:10:39;;;;;;;9.73;7.13;;;12.90;99.90;;;;;;5013001;28;20049;-71
2022/10/16 00:13:07;;;;;;;7.88;7.18;;;12.90;99.90;;;;;;5016288;28;20515;-71
2022/10/16 00:15:39;;;;;;;8.40;7.53;;;12.90;99.90;;;;;;4993513;28;20519;-71
2022/10/16 00:18:06;;;;;;;13.40;7.93;;;13.00;99.90;;;;;;5015236;28;20048;-71
2022/10/16 00:20:34;;;;;;;10.10;7.82;;;13.00;99.90;;;;;;5012019;28;20565;-71
2022/10/16 00:23:01;;;;;;;8.60;7.65;;;13.00;99.90;;;;;;4995412;28;20038;-71
2022/10/16 00:25:28;;;;;;;8.68;7.47;;;13.00;99.90;;;;;;5009666;28;20392;-71
2022/10/16 00:27:54;;;;;;;8.05;7.25;;;13.10;99.90;;;;;;4996731;28;20059;-71
2022/10/16 00:30:21;;;;;;;14.07;7.88;;;13.10;99.90;;;;;;4995375;28;20574;-71
2022/10/16 00:32:48;;;;;;;12.60;9.05;;;13.10;99.90;;;;;;5022010;28;20046;-71
2022/10/16 00:35:14;;;;;;;11.77;8.93;;;13.00;99.90;;;;;;5023997;28;20223;-71
2022/10/16 00:37:41;;;;;;;15.07;9.20;;;12.90;99.90;;;;;;4998944;28;20048;-70
2022/10/16 00:40:09;;;;;;;12.30;10.45;;;12.90;99.90;;;;;;5022704;28;20036;-71
2022/10/16 00:42:35;;;;;;;14.50;10.90;;;12.80;99.90;;;;;;5019126;28;20077;-71
2022/10/16 00:45:03;;;;;;;15.38;11.60;;;12.80;99.90;;;;;;5021328;28;20046;-71
2022/10/16 00:47:38;;;;;;;14.80;12.77;;;12.70;99.90;;;;;;5021868;28;20033;-71
2022/10/16 00:50:10;;;;;;;15.15;11.40;;;12.70;99.90;;;;;;5017764;28;20092;-71
2022/10/16 00:52:41;;;;;;;20.50;12.00;;;12.50;99.90;;;;;;5012349;28;20561;-71
2022/10/16 00:55:09;;;;;;;18.30;12.57;;;12.40;99.90;;;;;;5017699;28;20136;-71
2022/10/16 00:57:37;;;;;;;18.33;12.82;;;12.30;99.90;;;;;;5014195;28;20698;-71
2022/10/16 01:00:06;;;;;;;19.05;12.07;;;12.20;99.90;;;;;;5021395;28;20076;-71
2022/10/16 01:02:33;;;;;;;19.55;14.30;;;12.30;99.90;;;;;;5016046;28;20080;-71
2022/10/16 01:05:01;;;;;;;25.23;15.45;;;12.50;99.90;;;;;;5002140;28;20038;-71
2022/10/16 01:07:47;;;;;;;21.27;15.20;;;12.30;99.90;;;;;;4995315;28;20152;-71
2022/10/16 01:10:25;;;;;;;19.83;14.35;;;12.30;99.90;;;;;;5018766;28;20045;-71
2022/10/16 01:13:06;;;;;;;23.08;15.02;;;12.30;99.90;;;;;;4995721;28;20037;-71
2022/10/16 01:15:45;;;;;;;22.15;14.82;;;12.20;99.90;;;;;;5010860;28;20052;-71
2022/10/16 01:18:17;;;;;;;22.90;15.60;;;12.20;99.90;;;;;;5019668;28;20065;-71
2022/10/16 01:20:49;;;;;;;21.75;15.55;;;12.20;99.90;;;;;;4997415;28;20049;-71
2022/10/16 01:23:26;;;;;;;27.17;16.85;;;12.20;99.90;;;;;;4999912;28;20048;-71
2022/10/16 01:26:04;;;;;;;23.75;17.17;;;12.10;99.90;;;;;;5023969;28;20033;-71
2022/10/16 01:28:46;;;;;;;25.52;17.35;;;12.10;99.90;;;;;;4995784;28;20053;-71
2022/10/16 01:31:17;;;;;;;25.20;17.90;;;12.10;99.90;;;;;;5003117;28;20069;-71
2022/10/16 01:33:56;;;;;;;31.92;18.83;;;12.10;99.90;;;;;;4999449;28;20131;-71
2022/10/16 01:36:28;;;;;;;27.52;17.55;;;12.00;99.90;;;;;;5002939;28;20046;-71
2022/10/16 01:39:00;;;;;;;29.73;18.00;;;11.90;99.90;;;;;;4982011;28;20143;-71
2022/10/16 01:41:33;;;;;;;29.88;19.85;;;11.90;99.90;;;;;;5015319;28;20041;-71
2022/10/16 01:44:10;;;;;;;28.00;17.63;;;11.90;99.90;;;;;;5022166;28;20329;-71
2022/10/16 01:46:39;;;;;;;31.77;18.17;;;11.70;99.90;;;;;;4997870;28;20049;-71
2022/10/16 01:49:08;;;;;;;40.65;20.52;;;11.80;99.90;;;;;;5004411;28;20149;-71
2022/10/16 01:51:36;;;;;;;38.03;20.05;;;11.80;99.90;;;;;;5012382;28;20050;-70
2022/10/16 01:54:07;;;;;;;38.38;20.02;;;11.80;99.90;;;;;;4999327;28;20049;-71
2022/10/16 01:56:35;;;;;;;39.17;19.02;;;11.80;99.90;;;;;;4994855;28;20332;-71
2022/10/16 01:59:06;;;;;;;36.17;18.63;;;11.80;99.90;;;;;;5016400;28;20113;-71
2022/10/16 02:01:36;;;;;;;36.88;19.25;;;11.90;99.90;;;;;;5012705;28;20377;-71
2022/10/16 02:04:16;;;;;;;33.35;20.02;;;11.90;99.90;;;;;;5020440;28;20503;-70
2022/10/16 02:06:43;;;;;;;38.33;18.75;;;12.00;99.90;;;;;;4999680;28;20128;-71
2022/10/16 02:09:12;;;;;;;34.25;19.17;;;12.00;99.90;;;;;;5007929;28;20052;-71
2022/10/16 02:11:39;;;;;;;36.97;19.35;;;11.90;99.90;;;;;;4995719;28;20765;-71
2022/10/16 02:14:06;;;;;;;37.95;18.02;;;12.00;99.90;;;;;;5016776;28;20045;-71
2022/10/16 02:16:42;;;;;;;34.08;19.98;;;11.90;99.90;;;;;;5016893;28;20148;-71
2022/10/16 02:19:13;;;;;;;37.35;17.98;;;12.00;99.90;;;;;;5021103;28;20053;-71
2022/10/16 02:21:57;;;;;;;32.38;17.50;;;11.90;99.90;;;;;;5015652;28;20515;-71
2022/10/16 02:24:49;;;;;;;28.17;17.35;;;11.90;99.90;;;;;;4998057;28;20505;-71
2022/10/16 02:27:31;;;;;;;23.92;16.98;;;11.90;99.90;;;;;;5018571;28;20277;-71
2022/10/16 02:30:08;;;;;;;28.35;18.02;;;12.00;99.90;;;;;;5079441;22;20056;-76
2022/10/16 02:32:38;;;;;;;26.70;17.33;;;12.00;99.90;;;;;;5045198;28;20072;-75
2022/10/16 02:35:07;;;;;;;22.70;15.45;;;11.90;99.90;;;;;;5056885;28;20076;-76
2022/10/16 02:37:38;;;;;;;34.13;18.15;;;11.90;99.90;;;;;;5052647;28;20071;-75
2022/10/16 02:40:07;;;;;;;25.92;16.73;;;12.00;99.90;;;;;;5065484;28;20044;-76
2022/10/16 02:42:37;;;;;;;24.50;14.80;;;11.90;99.90;;;;;;5067040;28;20040;-76
2022/10/16 02:45:05;;;;;;;28.70;14.90;;;11.90;99.90;;;;;;5059444;28;20051;-76
2022/10/16 02:47:31;;;;;;;30.42;17.42;;;11.80;99.90;;;;;;5055555;28;20482;-76
2022/10/16 02:49:59;;;;;;;28.85;15.43;;;11.80;99.90;;;;;;5072609;28;20096;-75
2022/10/16 02:52:25;;;;;;;25.90;17.05;;;11.90;99.90;;;;;;5058750;28;20429;-76
2022/10/16 02:54:53;;;;;;;21.60;14.35;;;11.90;99.90;;;;;;5063234;28;20039;-76
2022/10/16 02:57:20;;;;;;;20.42;14.93;;;11.90;99.90;;;;;;5071533;28;20128;-77
2022/10/16 02:59:47;;;;;;;20.40;13.73;;;11.80;99.90;;;;;;5060944;28;20063;-76
2022/10/16 03:02:14;;;;;;;21.25;14.10;;;11.90;99.90;;;;;;5062705;28;20032;-76
2022/10/16 03:04:40;;;;;;;23.20;14.70;;;11.90;99.90;;;;;;5063446;28;20948;-76
2022/10/16 03:07:07;;;;;;;22.42;15.68;;;11.90;99.90;;;;;;5069284;28;20138;-75
2022/10/16 03:09:34;;;;;;;25.45;15.48;;;11.80;99.90;;;;;;5059770;28;20048;-76
2022/10/16 03:12:01;;;;;;;19.75;13.73;;;11.90;99.90;;;;;;5066306;28;20055;-76
2022/10/16 03:14:27;;;;;;;15.77;12.75;;;11.80;99.90;;;;;;5059816;28;20275;-76
2022/10/16 03:16:59;;;;;;;19.13;13.07;;;11.80;99.90;;;;;;5069373;28;20522;-75
2022/10/16 03:19:26;;;;;;;17.23;12.23;;;11.80;99.90;;;;;;5069141;28;20124;-76
2022/10/16 03:21:52;;;;;;;18.63;12.85;;;11.80;99.90;;;;;;5073212;28;20436;-75
2022/10/16 03:24:19;;;;;;;20.60;11.60;;;11.80;99.90;;;;;;5058171;28;20099;-75
2022/10/16 03:26:46;;;;;;;15.75;10.40;;;11.80;99.90;;;;;;5056876;28;20063;-75
2022/10/16 03:29:13;;;;;;;13.73;10.07;;;11.90;99.90;;;;;;5055814;28;20291;-75
2022/10/16 03:31:39;;;;;;;15.80;9.98;;;11.80;99.90;;;;;;5056495;28;20044;-75
2022/10/16 03:34:06;;;;;;;16.50;10.15;;;11.80;99.90;;;;;;5050636;28;20565;-75
2022/10/16 03:36:33;;;;;;;16.88;10.25;;;11.80;99.90;;;;;;5066816;28;20066;-75
2022/10/16 03:38:59;;;;;;;15.63;9.32;;;11.80;99.90;;;;;;5075420;28;20051;-75
2022/10/16 03:41:26;;;;;;;16.10;9.55;;;11.80;99.90;;;;;;5061719;28;20078;-75
2022/10/16 03:43:53;;;;;;;14.30;9.18;;;11.80;99.90;;;;;;5071743;28;20097;-75
2022/10/16 03:46:19;;;;;;;11.73;9.65;;;11.80;99.90;;;;;;5089915;28;20040;-75
2022/10/16 03:48:46;;;;;;;10.55;8.57;;;11.80;99.90;;;;;;5089154;28;20108;-75
2022/10/16 03:51:13;;;;;;;13.05;9.02;;;11.80;99.90;;;;;;5097675;28;20028;-75
2022/10/16 03:53:40;;;;;;;11.02;8.60;;;11.80;99.90;;;;;;5071476;28;20063;-75
2022/10/16 03:56:06;;;;;;;10.15;7.28;;;11.80;99.90;;;;;;5091304;28;20099;-75
2022/10/16 03:58:33;;;;;;;10.75;8.73;;;11.80;99.90;;;;;;5076750;28;20094;-76
2022/10/16 04:01:00;;;;;;;11.70;8.90;;;11.90;99.90;;;;;;5070452;28;20036;-75
2022/10/16 04:03:27;;;;;;;12.23;9.55;;;11.90;99.90;;;;;;5060967;28;20316;-76
2022/10/16 04:05:54;;;;;;;11.35;10.13;;;11.80;99.90;;;;;;5064443;28;20124;-76
2022/10/16 04:08:21;;;;;;;11.55;9.48;;;11.80;99.90;;;;;;5073969;28;20051;-75
2022/10/16 04:10:48;;;;;;;14.82;9.80;;;11.80;99.90;;;;;;5071354;28;20054;-75
2022/10/16 04:13:15;;;;;;;15.90;9.48;;;11.80;99.90;;;;;;5072505;28;20035;-75
2022/10/16 04:15:42;;;;;;;11.55;9.63;;;11.80;99.90;;;;;;5069741;28;20052;-75
2022/10/16 04:18:09;;;;;;;10.93;9.15;;;11.90;99.90;;;;;;5066855;28;20147;-75
2022/10/16 04:20:35;;;;;;;11.07;7.78;;;11.90;99.90;;;;;;5060600;28;20043;-75
2022/10/16 04:23:02;;;;;;;11.43;8.30;;;11.90;99.90;;;;;;5063819;28;20131;-75
2022/10/16 04:25:30;;;;;;;9.57;7.95;;;11.90;99.90;;;;;;5073085;28;20044;-75
2022/10/16 04:27:57;;;;;;;9.38;7.65;;;11.80;99.90;;;;;;5070515;28;20036;-75
2022/10/16 04:30:24;;;;;;;12.73;7.40;;;11.90;99.90;;;;;;5063090;28;20040;-75
2022/10/16 04:32:52;;;;;;;16.67;9.13;;;11.90;99.90;;;;;;5054736;28;20212;-75
2022/10/16 04:35:20;;;;;;;13.02;10.25;;;11.80;99.90;;;;;;5072075;28;20732;-75
2022/10/16 04:37:47;;;;;;;10.05;8.80;;;11.90;99.90;;;;;;5070819;28;20046;-75
2022/10/16 04:40:14;;;;;;;11.75;7.15;;;11.90;99.90;;;;;;5084738;28;20040;-74
2022/10/16 04:42:41;;;;;;;9.85;7.07;;;11.90;99.90;;;;;;5067941;28;20098;-75
2022/10/16 04:45:08;;;;;;;11.55;8.30;;;11.90;99.90;;;;;;5056472;28;20047;-75
2022/10/16 04:47:40;;;;;;;11.77;8.50;;;11.90;99.90;;;;;;5066464;28;20106;-76
2022/10/16 04:50:07;;;;;;;9.82;8.93;;;11.90;99.90;;;;;;5075854;28;20063;-76
2022/10/16 04:52:34;;;;;;;9.70;8.73;;;12.00;99.90;;;;;;5043146;28;20132;-76
2022/10/16 04:55:06;;;;;;;10.18;9.20;;;12.00;99.90;;;;;;5050247;28;20087;-75
2022/10/16 04:57:33;;;;;;;12.13;8.90;;;12.00;99.90;;;;;;5071541;28;20047;-75
2022/10/16 05:00:00;;;;;;;10.55;8.57;;;12.00;99.90;;;;;;5064761;28;20047;-76
2022/10/16 05:02:27;;;;;;;8.73;7.88;;;12.00;99.90;;;;;;5058128;28;20458;-76
2022/10/16 05:04:54;;;;;;;11.98;8.65;;;12.00;99.90;;;;;;5066784;28;20124;-76
2022/10/16 05:07:20;;;;;;;9.07;8.27;;;12.00;99.90;;;;;;5065701;28;20131;-76
2022/10/16 05:09:47;;;;;;;9.90;8.95;;;11.90;99.90;;;;;;5070700;28;20464;-76
2022/10/16 05:12:14;;;;;;;10.38;8.98;;;11.90;99.90;;;;;;5068555;28;20467;-76
2022/10/16 05:14:40;;;;;;;10.60;9.00;;;12.00;99.90;;;;;;5061047;28;20040;-76
2022/10/16 05:17:07;;;;;;;11.05;8.90;;;12.10;99.90;;;;;;5043394;28;20254;-76
2022/10/16 05:19:34;;;;;;;9.60;8.70;;;12.10;99.90;;;;;;5059037;28;20053;-76
2022/10/16 05:22:01;;;;;;;11.75;8.38;;;12.10;99.90;;;;;;5059661;28;20064;-75
2022/10/16 05:24:28;;;;;;;11.13;8.50;;;12.00;99.90;;;;;;5062605;28;20413;-76
2022/10/16 05:26:54;;;;;;;9.07;8.13;;;12.00;99.90;;;;;;5071717;28;20124;-76
2022/10/16 05:29:21;;;;;;;8.25;7.47;;;12.00;99.90;;;;;;5072942;28;20582;-75
2022/10/16 05:31:52;;;;;;;11.45;7.10;;;12.00;99.90;;;;;;5065057;28;20650;-76
2022/10/16 05:34:20;;;;;;;8.68;6.60;;;11.90;99.90;;;;;;5047430;28;20279;-74
2022/10/16 05:36:47;;;;;;;7.22;5.75;;;11.90;99.90;;;;;;5066928;28;20778;-76
2022/10/16 05:39:15;;;;;;;5.75;5.13;;;11.90;99.90;;;;;;5063971;28;20056;-76
2022/10/16 05:41:43;;;;;;;7.28;5.68;;;11.90;99.90;;;;;;5052168;28;20052;-76
2022/10/16 05:44:10;;;;;;;6.47;5.03;;;11.90;99.90;;;;;;5067353;28;20036;-76
2022/10/16 05:46:37;;;;;;;5.32;4.75;;;11.90;99.90;;;;;;5059788;28;20044;-76
2022/10/16 05:49:03;;;;;;;5.90;4.55;;;11.90;99.90;;;;;;5064930;28;20040;-76
2022/10/16 05:51:30;;;;;;;8.45;4.97;;;11.90;99.90;;;;;;5064123;28;20068;-77
2022/10/16 05:53:57;;;;;;;6.03;5.53;;;11.90;99.90;;;;;;5072189;28;20043;-76
2022/10/16 05:56:24;;;;;;;6.25;5.57;;;11.90;99.90;;;;;;5066794;28;20087;-76
2022/10/16 05:58:50;;;;;;;7.70;7.00;;;11.80;99.90;;;;;;5070223;28;20350;-76
2022/10/16 06:01:18;;;;;;;7.68;6.88;;;11.80;99.90;;;;;;5058672;28;20056;-76
2022/10/16 06:03:45;;;;;;;14.27;6.93;;;11.80;99.90;;;;;;5054362;28;20045;-76
2022/10/16 06:06:17;;;;;;;11.93;6.43;;;11.80;99.90;;;;;;5057536;28;20043;-74
2022/10/16 06:08:45;;;;;;;6.72;5.60;;;11.80;99.90;;;;;;5055914;28;20383;-74
2022/10/16 06:11:15;;;;;;;8.45;6.60;;;11.80;99.90;;;;;;5063579;28;20036;-74
2022/10/16 06:13:42;;;;;;;7.20;6.07;;;11.80;99.90;;;;;;5058181;28;20277;-74
2022/10/16 06:16:10;;;;;;;6.30;5.70;;;11.90;99.90;;;;;;5056680;28;20058;-74
2022/10/16 06:18:37;;;;;;;11.73;7.32;;;11.90;99.90;;;;;;5055590;28;20044;-74
2022/10/16 06:21:18;;;;;;;7.53;6.82;;;11.90;99.90;;;;;;5071140;28;20124;-74
2022/10/16 06:23:47;;;;;;;6.95;6.32;;;11.90;99.90;;;;;;5066381;28;20044;-76
2022/10/16 06:26:17;;;;;;;11.43;7.32;;;11.90;99.90;;;;;;5054372;28;20130;-76
2022/10/16 06:28:44;;;;;;;8.90;8.00;;;11.90;99.90;;;;;;5059156;28;20105;-76
2022/10/16 06:31:12;;;;;;;10.82;8.07;;;12.00;99.90;;;;;;5063239;28;20040;-76
2022/10/16 06:33:39;;;;;;;8.70;7.72;;;12.00;99.90;;;;;;5057767;28;20055;-76
2022/10/16 06:36:15;;;;;;;7.68;7.00;;;12.10;99.90;;;;;;5065028;28;20117;-76
2022/10/16 06:38:42;;;;;;;8.80;7.97;;;12.10;99.90;;;;;;5038976;28;20095;-76
2022/10/16 06:41:12;;;;;;;7.85;7.15;;;12.10;99.90;;;;;;5053107;28;20144;-76
2022/10/16 06:43:39;;;;;;;9.73;7.10;;;12.10;99.90;;;;;;5055756;28;20051;-76
2022/10/16 06:46:09;;;;;;;9.05;7.45;;;12.20;99.90;;;;;;5038989;28;20036;-76
2022/10/16 06:48:39;;;;;;;7.38;6.68;;;12.20;99.90;;;;;;5053354;28;20252;-76
2022/10/16 06:51:10;;;;;;;7.80;6.78;;;12.30;99.90;;;;;;5041827;28;20045;-76
2022/10/16 06:53:42;;;;;;;7.82;6.68;;;12.30;99.90;;;;;;5053379;28;20063;-74
2022/10/16 06:56:30;;;;;;;8.73;6.90;;;12.30;99.90;;;;;;5053117;28;20139;-74
2022/10/16 06:58:57;;;;;;;9.30;6.95;;;12.40;99.90;;;;;;5057167;28;20263;-75
2022/10/16 07:01:24;;;;;;;9.15;6.35;;;12.40;99.90;;;;;;5060792;28;20044;-74
2022/10/16 07:03:52;;;;;;;7.47;6.80;;;12.50;99.90;;;;;;5057461;28;20185;-74
2022/10/16 07:06:21;;;;;;;10.10;7.38;;;12.50;99.90;;;;;;5067801;28;20402;-76
2022/10/16 07:08:48;;;;;;;11.15;7.35;;;12.60;99.90;;;;;;5049156;28;20526;-76
2022/10/16 07:11:18;;;;;;;8.00;6.47;;;12.60;99.90;;;;;;5057875;28;20110;-74
2022/10/16 07:13:46;;;;;;;6.22;5.72;;;12.60;99.90;;;;;;5038377;28;20048;-74
2022/10/16 07:16:22;;;;;;;8.43;7.50;;;12.70;99.90;;;;;;5058413;28;20059;-74
2022/10/16 07:18:51;;;;;;;9.48;8.63;;;12.80;99.90;;;;;;5062451;28;20437;-74
2022/10/16 07:21:22;;;;;;;8.80;7.63;;;12.80;99.90;;;;;;5048573;28;20040;-74
2022/10/16 07:23:53;;;;;;;9.05;8.05;;;12.90;99.90;;;;;;5058820;28;20987;-74
2022/10/16 07:26:20;;;;;;;9.63;8.32;;;13.00;99.90;;;;;;5061013;28;20441;-74
2022/10/16 07:28:46;;;;;;;7.57;6.97;;;13.10;99.90;;;;;;5054512;28;20064;-74
2022/10/16 07:31:15;;;;;;;8.98;6.63;;;13.20;99.90;;;;;;5050396;28;20041;-74
2022/10/16 07:33:44;;;;;;;7.18;6.68;;;13.30;99.90;;;;;;5054663;28;20568;-74
2022/10/16 07:36:12;;;;;;;7.75;7.22;;;13.30;99.90;;;;;;5063014;28;20203;-74
2022/10/16 07:38:43;;;;;;;7.72;7.30;;;13.40;99.90;;;;;;5055440;28;20037;-74
2022/10/16 07:41:12;;;;;;;8.32;7.72;;;13.50;99.90;;;;;;5058335;28;20564;-74
2022/10/16 07:43:39;;;;;;;9.60;8.90;;;13.70;99.90;;;;;;5061129;28;20036;-74
2022/10/16 07:46:06;;;;;;;10.02;9.38;;;13.90;99.90;;;;;;5067981;28;20036;-74
2022/10/16 07:48:34;;;;;;;9.68;9.18;;;14.00;99.90;;;;;;5065013;28;20527;-73
2022/10/16 07:51:02;;;;;;;10.30;9.70;;;14.20;99.90;;;;;;5053908;28;20032;-74
2022/10/16 07:53:30;;;;;;;11.32;10.63;;;14.30;99.90;;;;;;5058447;28;20274;-74
2022/10/16 07:56:02;;;;;;;13.40;12.43;;;14.40;99.90;;;;;;5041427;28;20040;-73
2022/10/16 07:58:30;;;;;;;12.57;11.90;;;14.40;99.90;;;;;;5043292;28;20102;-76
2022/10/16 08:00:57;;;;;;;12.70;12.10;;;14.50;99.90;;;;;;5043505;28;20033;-76
2022/10/16 08:03:25;;;;;;;13.30;12.60;;;14.50;99.90;;;;;;5039225;28;20491;-73
2022/10/16 08:05:52;;;;;;;14.65;13.80;;;14.60;99.90;;;;;;5063788;28;20307;-74
2022/10/16 08:08:19;;;;;;;15.00;14.25;;;14.80;99.90;;;;;;5070350;28;20047;-73
2022/10/16 08:10:46;;;;;;;15.40;14.65;;;15.00;99.90;;;;;;5051104;28;20063;-73
2022/10/16 08:13:14;;;;;;;17.08;16.27;;;15.20;99.90;;;;;;5064186;28;20456;-74
2022/10/16 08:15:43;;;;;;;16.40;15.60;;;15.30;99.90;;;;;;5057228;28;20041;-74
2022/10/16 08:18:10;;;;;;;16.48;15.50;;;15.10;99.90;;;;;;5069104;28;20044;-74
2022/10/16 08:20:38;;;;;;;15.57;14.70;;;15.00;99.90;;;;;;5058400;28;20070;-74
2022/10/16 08:23:04;;;;;;;16.30;15.32;;;15.10;99.90;;;;;;5062341;28;20059;-73
2022/10/16 08:25:34;;;;;;;15.85;15.05;;;15.30;99.90;;;;;;5056013;28;20043;-72
2022/10/16 08:28:02;;;;;;;16.67;15.88;;;15.50;99.90;;;;;;5066292;28;20484;-74
2022/10/16 08:30:29;;;;;;;17.25;16.35;;;15.60;99.90;;;;;;5083040;22;20044;-71
2022/10/16 08:32:55;;;;;;;17.48;16.52;;;15.70;99.90;;;;;;5047567;28;20445;-71
2022/10/16 08:35:22;;;;;;;17.23;16.20;;;15.60;99.90;;;;;;5050365;28;20040;-72
2022/10/16 08:37:49;;;;;;;16.88;15.93;;;15.40;99.90;;;;;;5046667;28;20043;-71
2022/10/16 08:40:28;;;;;;;18.08;17.08;;;15.30;99.90;;;;;;5061650;28;20508;-71
2022/10/16 08:43:13;;;;;;;19.27;17.90;;;15.20;99.90;;;;;;5057011;28;20040;-72
2022/10/16 08:45:58;;;;;;;18.98;18.08;;;15.60;99.90;;;;;;5047504;28;20414;-72
2022/10/16 08:48:31;;;;;;;17.55;16.65;;;15.60;99.90;;;;;;5051424;28;20044;-72
2022/10/16 08:50:57;;;;;;;17.83;16.92;;;15.60;99.90;;;;;;5048869;28;20068;-71
2022/10/16 08:53:30;;;;;;;18.58;17.60;;;15.70;99.90;;;;;;5057910;28;20117;-72
2022/10/16 08:55:58;;;;;;;18.40;17.48;;;15.90;99.90;;;;;;5047985;28;20123;-72
2022/10/16 08:58:30;;;;;;;18.08;17.27;;;16.00;99.90;;;;;;5058594;28;20569;-71
2022/10/16 09:01:00;;;;;;;19.40;18.20;;;16.20;99.90;;;;;;5047635;28;20040;-72
2022/10/16 09:03:49;;;;;;;18.25;17.40;;;16.30;99.90;;;;;;5056481;28;20097;-72
2022/10/16 09:06:46;;;;;;;19.05;18.05;;;16.60;99.90;;;;;;5059559;28;20062;-72
2022/10/16 09:09:40;;;;;;;19.88;18.77;;;16.60;99.90;;;;;;5057571;28;20047;-72
2022/10/16 09:12:31;;;;;;;18.73;17.83;;;16.60;99.90;;;;;;5069333;28;20036;-71
2022/10/16 09:15:02;;;;;;;20.15;18.90;;;16.80;99.90;;;;;;5044093;28;20139;-72
2022/10/16 09:17:35;;;;;;;19.98;18.88;;;16.80;99.90;;;;;;5043274;28;20050;-71
2022/10/16 09:20:32;;;;;;;19.95;18.95;;;17.10;99.90;;;;;;5053513;28;20255;-72
2022/10/16 09:23:13;;;;;;;20.88;19.77;;;17.50;99.90;;;;;;5054220;28;20056;-72
2022/10/16 09:25:43;;;;;;;21.73;20.52;;;17.40;99.90;;;;;;5033697;28;20045;-71
2022/10/16 09:28:10;;;;;;;21.48;20.23;;;17.30;99.90;;;;;;5057567;28;20040;-72
2022/10/16 09:30:39;;;;;;;21.55;20.40;;;17.40;99.90;;;;;;5061046;28;20135;-71
2022/10/16 09:33:07;;;;;;;19.70;18.52;;;17.50;99.90;;;;;;5049363;28;20528;-72
2022/10/16 09:35:47;;;;;;;20.75;19.60;;;17.20;99.90;;;;;;5063496;28;20055;-71
2022/10/16 09:38:33;;;;;;;21.35;20.05;;;17.40;99.90;;;;;;5058435;28;20059;-71
2022/10/16 09:41:02;;;;;;;21.63;20.52;;;17.40;99.90;;;;;;5052908;28;20040;-71
2022/10/16 09:43:42;;;;;;;21.75;20.75;;;17.30;99.90;;;;;;5045694;28;20040;-72
2022/10/16 09:46:28;;;;;;;21.30;20.00;;;17.20;99.90;;;;;;5065453;28;20052;-72
2022/10/16 09:49:01;;;;;;;19.58;18.67;;;17.20;99.90;;;;;;5053974;28;20263;-72
2022/10/16 09:51:32;;;;;;;19.95;18.70;;;17.40;99.90;;;;;;5061092;28;20051;-72
2022/10/16 09:54:15;;;;;;;18.95;17.95;;;17.30;99.90;;;;;;5048075;28;20397;-71
2022/10/16 09:56:45;;;;;;;19.73;18.73;;;17.00;99.90;;;;;;5058621;28;20047;-72
2022/10/16 09:59:16;;;;;;;19.30;18.27;;;16.80;99.90;;;;;;5062440;28;20040;-72
2022/10/16 10:01:50;;;;;;;19.80;18.90;;;16.80;99.90;;;;;;5054822;28;20553;-72
2022/10/16 10:04:22;;;;;;;20.20;19.20;;;17.00;99.90;;;;;;5051301;28;20040;-71
2022/10/16 10:06:52;;;;;;;20.30;19.25;;;17.20;99.90;;;;;;5040786;28;20060;-71
2022/10/16 10:09:27;;;;;;;20.13;19.23;;;17.20;99.90;;;;;;5061536;28;20044;-71
2022/10/16 10:11:55;;;;;;;20.60;19.45;;;17.10;99.90;;;;;;5054875;28;20044;-70
2022/10/16 10:14:25;;;;;;;21.42;20.25;;;17.00;99.90;;;;;;5058020;28;20052;-71
2022/10/16 10:17:06;;;;;;;21.38;20.15;;;16.70;99.90;;;;;;5045631;28;20115;-71
2022/10/16 10:19:50;;;;;;;21.23;19.92;;;16.60;99.90;;;;;;5044104;28;20112;-71
2022/10/16 10:22:21;;;;;;;22.25;21.17;;;16.50;99.90;;;;;;5063224;28;20048;-70
2022/10/16 10:25:00;;;;;;;21.67;20.13;;;16.50;99.90;;;;;;5061705;28;20042;-70
2022/10/16 10:27:53;;;;;;;20.92;19.83;;;16.80;99.90;;;;;;5042620;28;20071;-70
2022/10/16 10:30:29;;;;;;;19.48;18.58;;;17.10;99.90;;;;;;5059820;28;20498;-69
2022/10/16 10:33:28;;;;;;;21.00;19.65;;;16.90;99.90;;;;;;5053102;28;20542;-70
2022/10/16 10:36:22;;;;;;;21.95;20.77;;;16.60;99.90;;;;;;5056237;28;20527;-70
2022/10/16 10:39:18;;;;;;;20.83;19.63;;;16.30;99.90;;;;;;5045992;28;20056;-70
2022/10/16 10:41:45;;;;;;;19.45;18.45;;;16.40;99.90;;;;;;5029506;28;20051;-72
2022/10/16 10:44:33;;;;;;;21.63;20.38;;;16.50;99.90;;;;;;5051164;28;20490;-72
2022/10/16 10:47:18;;;;;;;19.73;18.83;;;16.40;99.90;;;;;;5055094;28;20097;-70
2022/10/16 10:50:02;;;;;;;19.52;18.52;;;16.80;99.90;;;;;;5049664;28;20516;-71
2022/10/16 10:52:59;;;;;;;18.55;17.60;;;16.90;99.90;;;;;;5055878;28;20050;-70
2022/10/16 10:56:10;;;;;;;19.48;18.38;;;17.00;99.90;;;;;;5053830;28;20418;-70
2022/10/16 10:59:08;;;;;;;19.27;18.27;;;16.80;99.90;;;;;;5059533;28;20067;-69
2022/10/16 11:02:01;;;;;;;16.98;15.98;;;16.60;99.90;;;;;;5036223;28;20150;-69
2022/10/16 11:04:50;;;;;;;19.30;18.30;;;16.40;99.90;;;;;;5055007;28;20040;-71
2022/10/16 11:07:26;;;;;;;20.23;18.98;;;16.20;99.90;;;;;;5063005;28;20040;-69
2022/10/16 11:09:58;;;;;;;19.50;18.45;;;16.30;99.90;;;;;;5054497;28;20471;-71
2022/10/16 11:12:36;;;;;;;17.08;16.27;;;16.80;99.90;;;;;;5056708;28;20043;-70
2022/10/16 11:15:14;;;;;;;17.88;16.90;;;17.10;99.90;;;;;;5060491;28;20083;-70
2022/10/16 11:17:52;;;;;;;18.40;17.50;;;17.00;99.90;;;;;;5044181;28;20036;-69
2022/10/16 11:20:42;;;;;;;17.88;16.88;;;16.90;99.90;;;;;;5053586;28;20040;-70
2022/10/16 11:23:21;;;;;;;18.25;17.35;;;17.00;99.90;;;;;;5055474;28;20043;-70
2022/10/16 11:25:48;;;;;;;19.35;18.13;;;17.40;99.90;;;;;;5062782;28;20048;-71
2022/10/16 11:28:25;;;;;;;19.25;18.25;;;17.60;99.90;;;;;;5036741;28;20052;-70
2022/10/16 11:31:13;;;;;;;19.40;18.30;;;17.90;99.90;;;;;;5056359;28;20062;-70
2022/10/16 11:33:42;;;;;;;19.05;18.17;;;18.10;99.90;;;;;;5047175;28;20056;-70
2022/10/16 11:36:25;;;;;;;18.00;17.20;;;18.30;99.90;;;;;;5065084;28;20039;-72
2022/10/16 11:39:04;;;;;;;20.02;18.70;;;18.60;99.90;;;;;;5061788;28;20044;-71
2022/10/16 11:41:46;;;;;;;20.38;19.27;;;18.80;99.90;;;;;;5050401;28;20482;-72
2022/10/16 11:44:44;;;;;;;19.25;18.35;;;18.80;99.90;;;;;;5046407;28;20037;-70
2022/10/16 11:47:40;;;;;;;19.05;17.95;;;18.90;99.90;;;;;;5046788;28;20075;-73
2022/10/16 11:50:52;;;;;;;18.30;17.50;;;19.00;99.90;;;;;;5060406;28;20048;-71
2022/10/16 11:53:42;;;;;;;18.15;17.30;;;19.00;99.90;;;;;;5045015;28;20052;-72
2022/10/16 11:56:16;;;;;;;19.02;17.85;;;19.00;99.90;;;;;;5055728;28;20033;-72
2022/10/16 11:58:59;;;;;;;18.83;17.73;;;19.20;99.90;;;;;;5047580;28;20329;-72
2022/10/16 12:01:43;;;;;;;18.48;17.48;;;19.40;99.90;;;;;;5054085;28;20526;-71
2022/10/16 12:04:16;;;;;;;18.00;17.13;;;19.30;99.90;;;;;;5047838;28;20064;-71
2022/10/16 12:06:50;;;;;;;18.08;17.25;;;19.10;99.90;;;;;;5044305;28;20045;-72
2022/10/16 12:09:32;;;;;;;17.67;16.67;;;19.00;99.90;;;;;;5037684;28;20045;-72
2022/10/16 12:11:59;;;;;;;17.88;16.98;;;19.10;99.90;;;;;;5046965;28;22114;-73
2022/10/16 12:14:32;;;;;;;18.67;17.55;;;19.10;99.90;;;;;;5049295;28;20047;-72
2022/10/16 12:17:01;;;;;;;17.50;16.55;;;19.30;99.90;;;;;;5049978;28;20075;-72
2022/10/16 12:19:29;;;;;;;18.73;17.67;;;19.30;99.90;;;;;;5037674;28;20667;-71
2022/10/16 12:21:59;;;;;;;18.50;17.45;;;19.40;99.90;;;;;;5060207;28;20208;-72
2022/10/16 12:24:38;;;;;;;18.60;17.67;;;19.40;99.90;;;;;;5060657;28;20068;-72
2022/10/16 12:27:20;;;;;;;19.13;18.02;;;19.40;99.90;;;;;;5053623;28;20040;-72
2022/10/16 12:29:47;;;;;;;18.35;17.40;;;19.50;99.90;;;;;;5055240;28;20048;-72
2022/10/16 12:32:40;;;;;;;18.88;17.90;;;19.60;99.90;;;;;;5054804;28;20127;-71
2022/10/16 12:35:24;;;;;;;19.52;18.40;;;19.70;99.90;;;;;;5062043;28;20056;-70
2022/10/16 12:37:52;;;;;;;18.27;16.98;;;19.70;99.90;;;;;;5060825;28;20545;-72
2022/10/16 12:40:31;;;;;;;18.48;17.38;;;19.70;99.90;;;;;;5065041;28;20037;-72
2022/10/16 12:42:58;;;;;;;19.10;18.10;;;19.50;99.90;;;;;;5061608;28;20158;-71
2022/10/16 12:45:30;;;;;;;18.88;17.88;;;19.50;99.90;;;;;;5061611;28;20040;-70
2022/10/16 12:47:59;;;;;;;18.88;17.92;;;19.60;99.90;;;;;;5053260;28;20049;-71
2022/10/16 12:50:37;;;;;;;20.15;18.95;;;19.60;99.90;;;;;;5062532;28;20045;-71
2022/10/16 12:53:37;;;;;;;19.30;18.40;;;19.50;99.90;;;;;;5052609;28;20418;-71
2022/10/16 12:56:39;;;;;;;18.92;18.02;;;19.60;99.90;;;;;;5023209;28;20584;-71
2022/10/16 12:59:12;;;;;;;18.70;17.77;;;19.50;99.90;;;;;;4986660;28;20062;-71